Missouri River (Missouri), Saint Charles (06935965)

StateMissouriLatestUnknown (0 cfs)
RiverMissouri RiverRatingObservedEstimated
Updated2020-07-13 15:30 (18 minutes ago)Flood - The river is flooding. Obstacles can be treacherous or deadly. The river should be avoided at this stage for casual trips and definitely for the inexperienced. Trips should be attempted only with protective gear and equipment.Flood(none)(none)
Discharge(none) (median: 103000 cfs)High - The river is high and potentially dangerous, especially for the young and / or inexperienced. Normal stream obstacles are sometimes difficult to navigate. Extended distances can be attempted, but canoe travel may not be advisable.High(none)(none)
Height15.2 feetGood - Conditions are ideal for a canoe or kayak. Boats typically will drag on fewer than one-quarter of riffles, if at all, and portages are unnecessary or rare. Normal float lengths can be attempted without a problem.Good(none)(none)
TrendFalling (falling over 24 hours)Low - River is low but can still be floated. Some riffles are okay but most come with significant dragging and might need a portage. Float lengths should be reduced to accommodate low flow, dragging, and portages.Low(none)(none)
USGSExternal icon USGS Site (External icon Google Maps)Poor - River is too low to float comfortably. Most or all riffles will drag or must be portaged and some obstacles (such as slick shelf rock) cause undue problems. Avoid the river at this stage for casual paddling trips.Poor(none)(none)

Trending Data

Plot Image

Trips for Missouri River (Missouri), Saint Charles (06935965)

DateStartEndDistanceConditionDischargeHeightFishingDetails

A total of 0 rows are displayed.

Condition Descriptions

Fishing Conditions

Fish Species

Notes

Classic Trip List

The classic River Trips application is still available for use. It is updated with the new system using a data retrofit. It is no longer maintained. The original River Trips application is no longer updated (as of 1 Dec 2016) but can be checked for errors or for the condition of the data before it was converted to the new system.

Gauge Data Table

ObservationHeightDischargeMaximum
Discharge
Minimum
Discharge
Mean
Discharge
P05P10P20P25P50
(Median)
P75P80P90P95
2020-07-13 15:30 15.20 256000 (2019) 37500 (2006) 118000 38100 49100 57700 61100 103000 141000 203000 250000 256000
2020-07-13 15:00 15.23 92300 256000 (2019) 37500 (2006) 118000 38100 49100 57700 61100 103000 141000 203000 250000 256000
2020-07-13 14:30 15.25 92500 256000 (2019) 37500 (2006) 118000 38100 49100 57700 61100 103000 141000 203000 250000 256000
2020-07-13 14:00 15.26 92600 256000 (2019) 37500 (2006) 118000 38100 49100 57700 61100 103000 141000 203000 250000 256000
2020-07-13 13:30 15.27 92600 256000 (2019) 37500 (2006) 118000 38100 49100 57700 61100 103000 141000 203000 250000 256000
2020-07-13 13:00 15.23 92300 256000 (2019) 37500 (2006) 118000 38100 49100 57700 61100 103000 141000 203000 250000 256000
2020-07-13 12:30 15.25 92500 256000 (2019) 37500 (2006) 118000 38100 49100 57700 61100 103000 141000 203000 250000 256000
2020-07-13 12:00 15.25 92500 256000 (2019) 37500 (2006) 118000 38100 49100 57700 61100 103000 141000 203000 250000 256000
2020-07-13 11:30 15.28 92700 256000 (2019) 37500 (2006) 118000 38100 49100 57700 61100 103000 141000 203000 250000 256000
2020-07-13 11:00 15.27 92600 256000 (2019) 37500 (2006) 118000 38100 49100 57700 61100 103000 141000 203000 250000 256000
2020-07-13 10:30 15.27 92600 256000 (2019) 37500 (2006) 118000 38100 49100 57700 61100 103000 141000 203000 250000 256000
2020-07-13 10:00 15.27 92600 256000 (2019) 37500 (2006) 118000 38100 49100 57700 61100 103000 141000 203000 250000 256000
2020-07-13 09:30 15.30 92900 256000 (2019) 37500 (2006) 118000 38100 49100 57700 61100 103000 141000 203000 250000 256000
2020-07-13 09:00 15.29 92800 256000 (2019) 37500 (2006) 118000 38100 49100 57700 61100 103000 141000 203000 250000 256000
2020-07-13 08:30 15.28 92700 256000 (2019) 37500 (2006) 118000 38100 49100 57700 61100 103000 141000 203000 250000 256000
2020-07-13 08:00 15.36 93500 256000 (2019) 37500 (2006) 118000 38100 49100 57700 61100 103000 141000 203000 250000 256000
2020-07-13 07:30 15.33 93200 256000 (2019) 37500 (2006) 118000 38100 49100 57700 61100 103000 141000 203000 250000 256000
2020-07-13 07:00 15.35 93400 256000 (2019) 37500 (2006) 118000 38100 49100 57700 61100 103000 141000 203000 250000 256000
2020-07-13 06:30 15.38 93700 256000 (2019) 37500 (2006) 118000 38100 49100 57700 61100 103000 141000 203000 250000 256000
2020-07-13 06:00 15.39 93800 256000 (2019) 37500 (2006) 118000 38100 49100 57700 61100 103000 141000 203000 250000 256000
2020-07-13 05:30 15.30 92900 256000 (2019) 37500 (2006) 118000 38100 49100 57700 61100 103000 141000 203000 250000 256000
2020-07-13 05:00 15.40 93900 256000 (2019) 37500 (2006) 118000 38100 49100 57700 61100 103000 141000 203000 250000 256000
2020-07-13 04:30 15.38 93700 256000 (2019) 37500 (2006) 118000 38100 49100 57700 61100 103000 141000 203000 250000 256000
2020-07-13 04:00 15.42 94100 256000 (2019) 37500 (2006) 118000 38100 49100 57700 61100 103000 141000 203000 250000 256000
2020-07-13 03:30 15.43 94200 256000 (2019) 37500 (2006) 118000 38100 49100 57700 61100 103000 141000 203000 250000 256000
2020-07-13 03:00 15.43 94200 256000 (2019) 37500 (2006) 118000 38100 49100 57700 61100 103000 141000 203000 250000 256000
2020-07-13 02:30 15.40 93900 256000 (2019) 37500 (2006) 118000 38100 49100 57700 61100 103000 141000 203000 250000 256000
2020-07-13 02:00 15.41 94000 256000 (2019) 37500 (2006) 118000 38100 49100 57700 61100 103000 141000 203000 250000 256000
2020-07-13 01:30 15.46 94500 256000 (2019) 37500 (2006) 118000 38100 49100 57700 61100 103000 141000 203000 250000 256000
2020-07-13 01:00 15.41 94000 256000 (2019) 37500 (2006) 118000 38100 49100 57700 61100 103000 141000 203000 250000 256000
2020-07-13 00:30 15.47 94600 256000 (2019) 37500 (2006) 118000 38100 49100 57700 61100 103000 141000 203000 250000 256000
2020-07-13 00:00 15.45 94400 256000 (2019) 37500 (2006) 118000 38100 49100 57700 61100 103000 141000 203000 250000 256000
2020-07-12 23:30 15.49 94800 279000 (2015) 38000 (2006) 123000 38600 49500 59800 64500 104000 146000 215000 261000 278000
2020-07-12 23:00 15.49 94800 279000 (2015) 38000 (2006) 123000 38600 49500 59800 64500 104000 146000 215000 261000 278000
2020-07-12 22:30 15.51 95000 279000 (2015) 38000 (2006) 123000 38600 49500 59800 64500 104000 146000 215000 261000 278000
2020-07-12 22:00 15.50 94900 279000 (2015) 38000 (2006) 123000 38600 49500 59800 64500 104000 146000 215000 261000 278000
2020-07-12 21:30 15.55 95300 279000 (2015) 38000 (2006) 123000 38600 49500 59800 64500 104000 146000 215000 261000 278000
2020-07-12 21:00 15.58 95600 279000 (2015) 38000 (2006) 123000 38600 49500 59800 64500 104000 146000 215000 261000 278000
2020-07-12 20:30 15.58 95600 279000 (2015) 38000 (2006) 123000 38600 49500 59800 64500 104000 146000 215000 261000 278000
2020-07-12 20:00 15.56 95400 279000 (2015) 38000 (2006) 123000 38600 49500 59800 64500 104000 146000 215000 261000 278000
2020-07-12 19:30 15.57 95500 279000 (2015) 38000 (2006) 123000 38600 49500 59800 64500 104000 146000 215000 261000 278000
2020-07-12 19:00 15.65 96300 279000 (2015) 38000 (2006) 123000 38600 49500 59800 64500 104000 146000 215000 261000 278000
2020-07-12 18:30 15.63 96100 279000 (2015) 38000 (2006) 123000 38600 49500 59800 64500 104000 146000 215000 261000 278000
2020-07-12 18:00 15.66 96400 279000 (2015) 38000 (2006) 123000 38600 49500 59800 64500 104000 146000 215000 261000 278000
2020-07-12 17:30 15.66 96400 279000 (2015) 38000 (2006) 123000 38600 49500 59800 64500 104000 146000 215000 261000 278000
2020-07-12 17:00 15.66 96400 279000 (2015) 38000 (2006) 123000 38600 49500 59800 64500 104000 146000 215000 261000 278000
2020-07-12 16:30 15.62 96000 279000 (2015) 38000 (2006) 123000 38600 49500 59800 64500 104000 146000 215000 261000 278000
2020-07-12 16:00 15.68 96600 279000 (2015) 38000 (2006) 123000 38600 49500 59800 64500 104000 146000 215000 261000 278000
2020-07-12 15:30 15.69 96700 279000 (2015) 38000 (2006) 123000 38600 49500 59800 64500 104000 146000 215000 261000 278000
2020-07-12 15:00 15.72 97000 279000 (2015) 38000 (2006) 123000 38600 49500 59800 64500 104000 146000 215000 261000 278000
2020-07-12 14:30 15.74 97200 279000 (2015) 38000 (2006) 123000 38600 49500 59800 64500 104000 146000 215000 261000 278000
2020-07-12 14:00 15.76 97400 279000 (2015) 38000 (2006) 123000 38600 49500 59800 64500 104000 146000 215000 261000 278000
2020-07-12 13:30 15.74 97200 279000 (2015) 38000 (2006) 123000 38600 49500 59800 64500 104000 146000 215000 261000 278000
2020-07-12 13:00 15.74 97200 279000 (2015) 38000 (2006) 123000 38600 49500 59800 64500 104000 146000 215000 261000 278000
2020-07-12 12:30 15.81 97900 279000 (2015) 38000 (2006) 123000 38600 49500 59800 64500 104000 146000 215000 261000 278000
2020-07-12 12:00 15.82 98000 279000 (2015) 38000 (2006) 123000 38600 49500 59800 64500 104000 146000 215000 261000 278000
2020-07-12 11:30 15.81 97900 279000 (2015) 38000 (2006) 123000 38600 49500 59800 64500 104000 146000 215000 261000 278000
2020-07-12 11:00 15.85 98300 279000 (2015) 38000 (2006) 123000 38600 49500 59800 64500 104000 146000 215000 261000 278000
2020-07-12 10:30 15.85 98300 279000 (2015) 38000 (2006) 123000 38600 49500 59800 64500 104000 146000 215000 261000 278000
2020-07-12 10:00 15.85 98300 279000 (2015) 38000 (2006) 123000 38600 49500 59800 64500 104000 146000 215000 261000 278000
2020-07-12 09:30 15.86 98400 279000 (2015) 38000 (2006) 123000 38600 49500 59800 64500 104000 146000 215000 261000 278000
2020-07-12 09:00 15.82 98000 279000 (2015) 38000 (2006) 123000 38600 49500 59800 64500 104000 146000 215000 261000 278000
2020-07-12 08:30 15.90 98800 279000 (2015) 38000 (2006) 123000 38600 49500 59800 64500 104000 146000 215000 261000 278000
2020-07-12 08:00 15.90 98800 279000 (2015) 38000 (2006) 123000 38600 49500 59800 64500 104000 146000 215000 261000 278000
2020-07-12 07:30 15.92 99000 279000 (2015) 38000 (2006) 123000 38600 49500 59800 64500 104000 146000 215000 261000 278000
2020-07-12 07:00 15.94 99200 279000 (2015) 38000 (2006) 123000 38600 49500 59800 64500 104000 146000 215000 261000 278000
2020-07-12 06:30 15.97 99500 279000 (2015) 38000 (2006) 123000 38600 49500 59800 64500 104000 146000 215000 261000 278000
2020-07-12 06:00 15.96 99400 279000 (2015) 38000 (2006) 123000 38600 49500 59800 64500 104000 146000 215000 261000 278000
2020-07-12 05:30 15.97 99500 279000 (2015) 38000 (2006) 123000 38600 49500 59800 64500 104000 146000 215000 261000 278000
2020-07-12 05:00 15.99 99700 279000 (2015) 38000 (2006) 123000 38600 49500 59800 64500 104000 146000 215000 261000 278000
2020-07-12 04:30 16.03 100000 279000 (2015) 38000 (2006) 123000 38600 49500 59800 64500 104000 146000 215000 261000 278000
2020-07-12 04:00 16.03 100000 279000 (2015) 38000 (2006) 123000 38600 49500 59800 64500 104000 146000 215000 261000 278000
2020-07-12 03:30 16.02 100000 279000 (2015) 38000 (2006) 123000 38600 49500 59800 64500 104000 146000 215000 261000 278000
2020-07-12 03:00 16.08 101000 279000 (2015) 38000 (2006) 123000 38600 49500 59800 64500 104000 146000 215000 261000 278000
2020-07-12 02:30 16.08 101000 279000 (2015) 38000 (2006) 123000 38600 49500 59800 64500 104000 146000 215000 261000 278000
2020-07-12 02:00 16.06 100000 279000 (2015) 38000 (2006) 123000 38600 49500 59800 64500 104000 146000 215000 261000 278000
2020-07-12 01:30 16.11 101000 279000 (2015) 38000 (2006) 123000 38600 49500 59800 64500 104000 146000 215000 261000 278000
2020-07-12 01:00 16.12 101000 279000 (2015) 38000 (2006) 123000 38600 49500 59800 64500 104000 146000 215000 261000 278000
2020-07-12 00:30 16.08 101000 279000 (2015) 38000 (2006) 123000 38600 49500 59800 64500 104000 146000 215000 261000 278000
2020-07-12 00:00 16.09 101000 279000 (2015) 38000 (2006) 123000 38600 49500 59800 64500 104000 146000 215000 261000 278000
2020-07-11 23:30 16.12 101000 321000 (2015) 38200 (2006) 129000 38800 50300 57300 65900 102000 158000 233000 265000 318000
2020-07-11 23:00 16.15 101000 321000 (2015) 38200 (2006) 129000 38800 50300 57300 65900 102000 158000 233000 265000 318000
2020-07-11 22:30 16.12 101000 321000 (2015) 38200 (2006) 129000 38800 50300 57300 65900 102000 158000 233000 265000 318000
2020-07-11 22:00 16.14 101000 321000 (2015) 38200 (2006) 129000 38800 50300 57300 65900 102000 158000 233000 265000 318000
2020-07-11 21:30 16.13 101000 321000 (2015) 38200 (2006) 129000 38800 50300 57300 65900 102000 158000 233000 265000 318000
2020-07-11 21:00 16.15 101000 321000 (2015) 38200 (2006) 129000 38800 50300 57300 65900 102000 158000 233000 265000 318000
2020-07-11 20:30 16.14 101000 321000 (2015) 38200 (2006) 129000 38800 50300 57300 65900 102000 158000 233000 265000 318000
2020-07-11 20:00 16.19 102000 321000 (2015) 38200 (2006) 129000 38800 50300 57300 65900 102000 158000 233000 265000 318000
2020-07-11 19:30 16.18 102000 321000 (2015) 38200 (2006) 129000 38800 50300 57300 65900 102000 158000 233000 265000 318000
2020-07-11 19:00 16.18 102000 321000 (2015) 38200 (2006) 129000 38800 50300 57300 65900 102000 158000 233000 265000 318000
2020-07-11 18:30 16.18 102000 321000 (2015) 38200 (2006) 129000 38800 50300 57300 65900 102000 158000 233000 265000 318000
2020-07-11 18:00 16.22 102000 321000 (2015) 38200 (2006) 129000 38800 50300 57300 65900 102000 158000 233000 265000 318000
2020-07-11 17:30 16.21 102000 321000 (2015) 38200 (2006) 129000 38800 50300 57300 65900 102000 158000 233000 265000 318000
2020-07-11 17:00 16.21 102000 321000 (2015) 38200 (2006) 129000 38800 50300 57300 65900 102000 158000 233000 265000 318000
2020-07-11 16:30 16.22 102000 321000 (2015) 38200 (2006) 129000 38800 50300 57300 65900 102000 158000 233000 265000 318000
2020-07-11 16:00 16.20 102000 321000 (2015) 38200 (2006) 129000 38800 50300 57300 65900 102000 158000 233000 265000 318000
2020-07-11 15:30 16.20 102000 321000 (2015) 38200 (2006) 129000 38800 50300 57300 65900 102000 158000 233000 265000 318000
2020-07-11 15:00 16.21 102000 321000 (2015) 38200 (2006) 129000 38800 50300 57300 65900 102000 158000 233000 265000 318000
2020-07-11 14:30 16.20 102000 321000 (2015) 38200 (2006) 129000 38800 50300 57300 65900 102000 158000 233000 265000 318000
2020-07-11 14:00 16.23 102000 321000 (2015) 38200 (2006) 129000 38800 50300 57300 65900 102000 158000 233000 265000 318000
2020-07-11 13:30 16.14 101000 321000 (2015) 38200 (2006) 129000 38800 50300 57300 65900 102000 158000 233000 265000 318000
2020-07-11 13:00 16.24 102000 321000 (2015) 38200 (2006) 129000 38800 50300 57300 65900 102000 158000 233000 265000 318000
2020-07-11 12:30 16.25 102000 321000 (2015) 38200 (2006) 129000 38800 50300 57300 65900 102000 158000 233000 265000 318000
2020-07-11 12:00 16.21 102000 321000 (2015) 38200 (2006) 129000 38800 50300 57300 65900 102000 158000 233000 265000 318000
2020-07-11 11:30 16.26 102000 321000 (2015) 38200 (2006) 129000 38800 50300 57300 65900 102000 158000 233000 265000 318000
2020-07-11 11:00 16.27 103000 321000 (2015) 38200 (2006) 129000 38800 50300 57300 65900 102000 158000 233000 265000 318000
2020-07-11 10:30 16.24 102000 321000 (2015) 38200 (2006) 129000 38800 50300 57300 65900 102000 158000 233000 265000 318000
2020-07-11 10:00 16.25 102000 321000 (2015) 38200 (2006) 129000 38800 50300 57300 65900 102000 158000 233000 265000 318000
2020-07-11 09:30 16.25 102000 321000 (2015) 38200 (2006) 129000 38800 50300 57300 65900 102000 158000 233000 265000 318000
2020-07-11 09:00 16.23 102000 321000 (2015) 38200 (2006) 129000 38800 50300 57300 65900 102000 158000 233000 265000 318000
2020-07-11 08:30 16.26 102000 321000 (2015) 38200 (2006) 129000 38800 50300 57300 65900 102000 158000 233000 265000 318000
2020-07-11 08:00 16.25 102000 321000 (2015) 38200 (2006) 129000 38800 50300 57300 65900 102000 158000 233000 265000 318000
2020-07-11 07:30 16.24 102000 321000 (2015) 38200 (2006) 129000 38800 50300 57300 65900 102000 158000 233000 265000 318000
2020-07-11 07:00 16.23 102000 321000 (2015) 38200 (2006) 129000 38800 50300 57300 65900 102000 158000 233000 265000 318000
2020-07-11 06:30 16.27 103000 321000 (2015) 38200 (2006) 129000 38800 50300 57300 65900 102000 158000 233000 265000 318000
2020-07-11 06:00 16.27 103000 321000 (2015) 38200 (2006) 129000 38800 50300 57300 65900 102000 158000 233000 265000 318000
2020-07-11 05:30 16.31 103000 321000 (2015) 38200 (2006) 129000 38800 50300 57300 65900 102000 158000 233000 265000 318000
2020-07-11 05:00 16.33 103000 321000 (2015) 38200 (2006) 129000 38800 50300 57300 65900 102000 158000 233000 265000 318000
2020-07-11 04:30 16.31 103000 321000 (2015) 38200 (2006) 129000 38800 50300 57300 65900 102000 158000 233000 265000 318000
2020-07-11 04:00 16.33 103000 321000 (2015) 38200 (2006) 129000 38800 50300 57300 65900 102000 158000 233000 265000 318000
2020-07-11 03:30 16.33 103000 321000 (2015) 38200 (2006) 129000 38800 50300 57300 65900 102000 158000 233000 265000 318000
2020-07-11 03:00 16.34 103000 321000 (2015) 38200 (2006) 129000 38800 50300 57300 65900 102000 158000 233000 265000 318000
2020-07-11 02:30 16.31 103000 321000 (2015) 38200 (2006) 129000 38800 50300 57300 65900 102000 158000 233000 265000 318000
2020-07-11 02:00 16.35 103000 321000 (2015) 38200 (2006) 129000 38800 50300 57300 65900 102000 158000 233000 265000 318000
2020-07-11 01:30 16.37 104000 321000 (2015) 38200 (2006) 129000 38800 50300 57300 65900 102000 158000 233000 265000 318000
2020-07-11 01:00 16.36 103000 321000 (2015) 38200 (2006) 129000 38800 50300 57300 65900 102000 158000 233000 265000 318000
2020-07-11 00:30 16.34 103000 321000 (2015) 38200 (2006) 129000 38800 50300 57300 65900 102000 158000 233000 265000 318000
2020-07-11 00:00 16.35 103000 321000 (2015) 38200 (2006) 129000 38800 50300 57300 65900 102000 158000 233000 265000 318000
2020-07-10 23:30 16.37 104000 321000 (2015) 39100 (2006) 134000 39500 47800 58400 66200 112000 163000 236000 274000 319000
2020-07-10 23:00 16.37 104000 321000 (2015) 39100 (2006) 134000 39500 47800 58400 66200 112000 163000 236000 274000 319000
2020-07-10 22:30 16.37 104000 321000 (2015) 39100 (2006) 134000 39500 47800 58400 66200 112000 163000 236000 274000 319000
2020-07-10 22:00 16.38 104000 321000 (2015) 39100 (2006) 134000 39500 47800 58400 66200 112000 163000 236000 274000 319000
2020-07-10 21:30 16.40 104000 321000 (2015) 39100 (2006) 134000 39500 47800 58400 66200 112000 163000 236000 274000 319000
2020-07-10 21:00 16.40 104000 321000 (2015) 39100 (2006) 134000 39500 47800 58400 66200 112000 163000 236000 274000 319000
2020-07-10 20:30 16.38 104000 321000 (2015) 39100 (2006) 134000 39500 47800 58400 66200 112000 163000 236000 274000 319000
2020-07-10 20:00 16.41 104000 321000 (2015) 39100 (2006) 134000 39500 47800 58400 66200 112000 163000 236000 274000 319000
2020-07-10 19:30 16.42 104000 321000 (2015) 39100 (2006) 134000 39500 47800 58400 66200 112000 163000 236000 274000 319000
2020-07-10 19:00 16.39 104000 321000 (2015) 39100 (2006) 134000 39500 47800 58400 66200 112000 163000 236000 274000 319000
2020-07-10 18:30 16.38 104000 321000 (2015) 39100 (2006) 134000 39500 47800 58400 66200 112000 163000 236000 274000 319000
2020-07-10 18:00 16.38 104000 321000 (2015) 39100 (2006) 134000 39500 47800 58400 66200 112000 163000 236000 274000 319000
2020-07-10 17:30 16.38 104000 321000 (2015) 39100 (2006) 134000 39500 47800 58400 66200 112000 163000 236000 274000 319000
2020-07-10 17:00 16.38 104000 321000 (2015) 39100 (2006) 134000 39500 47800 58400 66200 112000 163000 236000 274000 319000
2020-07-10 16:30 16.38 104000 321000 (2015) 39100 (2006) 134000 39500 47800 58400 66200 112000 163000 236000 274000 319000
2020-07-10 16:00 16.39 104000 321000 (2015) 39100 (2006) 134000 39500 47800 58400 66200 112000 163000 236000 274000 319000
2020-07-10 15:30 16.38 104000 321000 (2015) 39100 (2006) 134000 39500 47800 58400 66200 112000 163000 236000 274000 319000
2020-07-10 15:00 16.40 104000 321000 (2015) 39100 (2006) 134000 39500 47800 58400 66200 112000 163000 236000 274000 319000
2020-07-10 14:30 16.42 104000 321000 (2015) 39100 (2006) 134000 39500 47800 58400 66200 112000 163000 236000 274000 319000
2020-07-10 14:00 16.38 104000 321000 (2015) 39100 (2006) 134000 39500 47800 58400 66200 112000 163000 236000 274000 319000
2020-07-10 13:30 16.41 104000 321000 (2015) 39100 (2006) 134000 39500 47800 58400 66200 112000 163000 236000 274000 319000
2020-07-10 13:00 16.40 104000 321000 (2015) 39100 (2006) 134000 39500 47800 58400 66200 112000 163000 236000 274000 319000
2020-07-10 12:30 16.39 104000 321000 (2015) 39100 (2006) 134000 39500 47800 58400 66200 112000 163000 236000 274000 319000
2020-07-10 12:00 16.38 104000 321000 (2015) 39100 (2006) 134000 39500 47800 58400 66200 112000 163000 236000 274000 319000
2020-07-10 11:30 16.38 104000 321000 (2015) 39100 (2006) 134000 39500 47800 58400 66200 112000 163000 236000 274000 319000
2020-07-10 11:00 16.41 104000 321000 (2015) 39100 (2006) 134000 39500 47800 58400 66200 112000 163000 236000 274000 319000
2020-07-10 10:30 16.38 104000 321000 (2015) 39100 (2006) 134000 39500 47800 58400 66200 112000 163000 236000 274000 319000
2020-07-10 10:00 16.38 104000 321000 (2015) 39100 (2006) 134000 39500 47800 58400 66200 112000 163000 236000 274000 319000
2020-07-10 09:30 16.42 104000 321000 (2015) 39100 (2006) 134000 39500 47800 58400 66200 112000 163000 236000 274000 319000
2020-07-10 09:00 16.40 104000 321000 (2015) 39100 (2006) 134000 39500 47800 58400 66200 112000 163000 236000 274000 319000
2020-07-10 08:30 16.44 104000 321000 (2015) 39100 (2006) 134000 39500 47800 58400 66200 112000 163000 236000 274000 319000
2020-07-10 08:00 16.45 104000 321000 (2015) 39100 (2006) 134000 39500 47800 58400 66200 112000 163000 236000 274000 319000
2020-07-10 07:30 16.42 104000 321000 (2015) 39100 (2006) 134000 39500 47800 58400 66200 112000 163000 236000 274000 319000
2020-07-10 07:00 16.44 104000 321000 (2015) 39100 (2006) 134000 39500 47800 58400 66200 112000 163000 236000 274000 319000
2020-07-10 06:30 16.48 105000 321000 (2015) 39100 (2006) 134000 39500 47800 58400 66200 112000 163000 236000 274000 319000
2020-07-10 06:00 16.46 105000 321000 (2015) 39100 (2006) 134000 39500 47800 58400 66200 112000 163000 236000 274000 319000
2020-07-10 05:30 16.49 105000 321000 (2015) 39100 (2006) 134000 39500 47800 58400 66200 112000 163000 236000 274000 319000
2020-07-10 05:00 16.49 105000 321000 (2015) 39100 (2006) 134000 39500 47800 58400 66200 112000 163000 236000 274000 319000
2020-07-10 04:30 16.50 105000 321000 (2015) 39100 (2006) 134000 39500 47800 58400 66200 112000 163000 236000 274000 319000
2020-07-10 04:00 16.48 105000 321000 (2015) 39100 (2006) 134000 39500 47800 58400 66200 112000 163000 236000 274000 319000
2020-07-10 03:30 16.51 105000 321000 (2015) 39100 (2006) 134000 39500 47800 58400 66200 112000 163000 236000 274000 319000
2020-07-10 03:00 16.54 105000 321000 (2015) 39100 (2006) 134000 39500 47800 58400 66200 112000 163000 236000 274000 319000
2020-07-10 02:30 16.58 106000 321000 (2015) 39100 (2006) 134000 39500 47800 58400 66200 112000 163000 236000 274000 319000
2020-07-10 02:00 16.60 106000 321000 (2015) 39100 (2006) 134000 39500 47800 58400 66200 112000 163000 236000 274000 319000
2020-07-10 01:30 16.60 106000 321000 (2015) 39100 (2006) 134000 39500 47800 58400 66200 112000 163000 236000 274000 319000
2020-07-10 01:00 16.63 106000 321000 (2015) 39100 (2006) 134000 39500 47800 58400 66200 112000 163000 236000 274000 319000
2020-07-10 00:30 16.67 107000 321000 (2015) 39100 (2006) 134000 39500 47800 58400 66200 112000 163000 236000 274000 319000
2020-07-10 00:00 16.66 107000 321000 (2015) 39100 (2006) 134000 39500 47800 58400 66200 112000 163000 236000 274000 319000
2020-07-09 23:30 16.70 107000 277000 (2019) 40100 (2006) 134000 40500 48600 56400 67400 123000 165000 237000 270000 277000
2020-07-09 23:00 16.68 107000 277000 (2019) 40100 (2006) 134000 40500 48600 56400 67400 123000 165000 237000 270000 277000
2020-07-09 22:30 16.70 107000 277000 (2019) 40100 (2006) 134000 40500 48600 56400 67400 123000 165000 237000 270000 277000
2020-07-09 22:00 16.73 107000 277000 (2019) 40100 (2006) 134000 40500 48600 56400 67400 123000 165000 237000 270000 277000
2020-07-09 21:30 16.77 108000 277000 (2019) 40100 (2006) 134000 40500 48600 56400 67400 123000 165000 237000 270000 277000
2020-07-09 21:00 16.77 108000 277000 (2019) 40100 (2006) 134000 40500 48600 56400 67400 123000 165000 237000 270000 277000
2020-07-09 20:30 16.78 108000 277000 (2019) 40100 (2006) 134000 40500 48600 56400 67400 123000 165000 237000 270000 277000
2020-07-09 20:00 16.82 108000 277000 (2019) 40100 (2006) 134000 40500 48600 56400 67400 123000 165000 237000 270000 277000
2020-07-09 19:30 16.83 108000 277000 (2019) 40100 (2006) 134000 40500 48600 56400 67400 123000 165000 237000 270000 277000
2020-07-09 19:00 16.85 109000 277000 (2019) 40100 (2006) 134000 40500 48600 56400 67400 123000 165000 237000 270000 277000
2020-07-09 18:30 16.88 109000 277000 (2019) 40100 (2006) 134000 40500 48600 56400 67400 123000 165000 237000 270000 277000
2020-07-09 18:00 16.89 109000 277000 (2019) 40100 (2006) 134000 40500 48600 56400 67400 123000 165000 237000 270000 277000
2020-07-09 17:30 16.88 109000 277000 (2019) 40100 (2006) 134000 40500 48600 56400 67400 123000 165000 237000 270000 277000
2020-07-09 17:00 16.91 109000 277000 (2019) 40100 (2006) 134000 40500 48600 56400 67400 123000 165000 237000 270000 277000
2020-07-09 16:30 16.92 109000 277000 (2019) 40100 (2006) 134000 40500 48600 56400 67400 123000 165000 237000 270000 277000
2020-07-09 16:00 16.98 110000 277000 (2019) 40100 (2006) 134000 40500 48600 56400 67400 123000 165000 237000 270000 277000
2020-07-09 15:30 17.00 110000 277000 (2019) 40100 (2006) 134000 40500 48600 56400 67400 123000 165000 237000 270000 277000
2020-07-09 15:00 16.98 110000 277000 (2019) 40100 (2006) 134000 40500 48600 56400 67400 123000 165000 237000 270000 277000
2020-07-09 14:30 16.97 110000 277000 (2019) 40100 (2006) 134000 40500 48600 56400 67400 123000 165000 237000 270000 277000
2020-07-09 14:00 17.01 110000 277000 (2019) 40100 (2006) 134000 40500 48600 56400 67400 123000 165000 237000 270000 277000
2020-07-09 13:30 17.05 111000 277000 (2019) 40100 (2006) 134000 40500 48600 56400 67400 123000 165000 237000 270000 277000
2020-07-09 13:00 17.10 111000 277000 (2019) 40100 (2006) 134000 40500 48600 56400 67400 123000 165000 237000 270000 277000
2020-07-09 12:30 17.08 111000 277000 (2019) 40100 (2006) 134000 40500 48600 56400 67400 123000 165000 237000 270000 277000
2020-07-09 12:00 17.07 111000 277000 (2019) 40100 (2006) 134000 40500 48600 56400 67400 123000 165000 237000 270000 277000
2020-07-09 11:30 17.13 112000 277000 (2019) 40100 (2006) 134000 40500 48600 56400 67400 123000 165000 237000 270000 277000
2020-07-09 11:00 17.13 112000 277000 (2019) 40100 (2006) 134000 40500 48600 56400 67400 123000 165000 237000 270000 277000
2020-07-09 10:30 17.14 112000 277000 (2019) 40100 (2006) 134000 40500 48600 56400 67400 123000 165000 237000 270000 277000
2020-07-09 10:00 17.15 112000 277000 (2019) 40100 (2006) 134000 40500 48600 56400 67400 123000 165000 237000 270000 277000
2020-07-09 09:30 17.16 112000 277000 (2019) 40100 (2006) 134000 40500 48600 56400 67400 123000 165000 237000 270000 277000
2020-07-09 09:00 17.19 112000 277000 (2019) 40100 (2006) 134000 40500 48600 56400 67400 123000 165000 237000 270000 277000
2020-07-09 08:30 17.21 113000 277000 (2019) 40100 (2006) 134000 40500 48600 56400 67400 123000 165000 237000 270000 277000
2020-07-09 08:00 17.20 112000 277000 (2019) 40100 (2006) 134000 40500 48600 56400 67400 123000 165000 237000 270000 277000
2020-07-09 07:30 17.23 113000 277000 (2019) 40100 (2006) 134000 40500 48600 56400 67400 123000 165000 237000 270000 277000
2020-07-09 07:00 113000 277000 (2019) 40100 (2006) 134000 40500 48600 56400 67400 123000 165000 237000 270000 277000
2020-07-09 06:30 17.25 113000 277000 (2019) 40100 (2006) 134000 40500 48600 56400 67400 123000 165000 237000 270000 277000
2020-07-09 06:00 17.26 113000 277000 (2019) 40100 (2006) 134000 40500 48600 56400 67400 123000 165000 237000 270000 277000
2020-07-09 05:30 17.29 113000 277000 (2019) 40100 (2006) 134000 40500 48600 56400 67400 123000 165000 237000 270000 277000
2020-07-09 05:00 17.31 114000 277000 (2019) 40100 (2006) 134000 40500 48600 56400 67400 123000 165000 237000 270000 277000
2020-07-09 04:30 17.33 114000 277000 (2019) 40100 (2006) 134000 40500 48600 56400 67400 123000 165000 237000 270000 277000
2020-07-09 04:00 17.36 114000 277000 (2019) 40100 (2006) 134000 40500 48600 56400 67400 123000 165000 237000 270000 277000
2020-07-09 03:30 17.37 114000 277000 (2019) 40100 (2006) 134000 40500 48600 56400 67400 123000 165000 237000 270000 277000
2020-07-09 03:00 17.40 115000 277000 (2019) 40100 (2006) 134000 40500 48600 56400 67400 123000 165000 237000 270000 277000
2020-07-09 02:30 17.40 115000 277000 (2019) 40100 (2006) 134000 40500 48600 56400 67400 123000 165000 237000 270000 277000
2020-07-09 02:00 17.42 115000 277000 (2019) 40100 (2006) 134000 40500 48600 56400 67400 123000 165000 237000 270000 277000
2020-07-09 01:30 17.42 115000 277000 (2019) 40100 (2006) 134000 40500 48600 56400 67400 123000 165000 237000 270000 277000
2020-07-09 01:00 17.47 115000 277000 (2019) 40100 (2006) 134000 40500 48600 56400 67400 123000 165000 237000 270000 277000
2020-07-09 00:30 17.50 116000 277000 (2019) 40100 (2006) 134000 40500 48600 56400 67400 123000 165000 237000 270000 277000
2020-07-09 00:00 17.54 116000 277000 (2019) 40100 (2006) 134000 40500 48600 56400 67400 123000 165000 237000 270000 277000
2020-07-08 23:30 17.48 116000 284000 (2019) 42000 (2006) 132000 42400 50500 57500 69900 128000 172000 206000 255000 283000
2020-07-08 23:00 17.53 116000 284000 (2019) 42000 (2006) 132000 42400 50500 57500 69900 128000 172000 206000 255000 283000
2020-07-08 22:30 17.55 116000 284000 (2019) 42000 (2006) 132000 42400 50500 57500 69900 128000 172000 206000 255000 283000
2020-07-08 22:00 17.55 116000 284000 (2019) 42000 (2006) 132000 42400 50500 57500 69900 128000 172000 206000 255000 283000
2020-07-08 21:30 17.57 117000 284000 (2019) 42000 (2006) 132000 42400 50500 57500 69900 128000 172000 206000 255000 283000
2020-07-08 21:00 17.59 117000 284000 (2019) 42000 (2006) 132000 42400 50500 57500 69900 128000 172000 206000 255000 283000
2020-07-08 20:30 17.62 117000 284000 (2019) 42000 (2006) 132000 42400 50500 57500 69900 128000 172000 206000 255000 283000
2020-07-08 20:00 17.64 117000 284000 (2019) 42000 (2006) 132000 42400 50500 57500 69900 128000 172000 206000 255000 283000
2020-07-08 19:30 17.64 117000 284000 (2019) 42000 (2006) 132000 42400 50500 57500 69900 128000 172000 206000 255000 283000
2020-07-08 19:00 17.63 117000 284000 (2019) 42000 (2006) 132000 42400 50500 57500 69900 128000 172000 206000 255000 283000
2020-07-08 18:30 17.62 117000 284000 (2019) 42000 (2006) 132000 42400 50500 57500 69900 128000 172000 206000 255000 283000
2020-07-08 18:00 17.68 118000 284000 (2019) 42000 (2006) 132000 42400 50500 57500 69900 128000 172000 206000 255000 283000
2020-07-08 17:30 17.70 118000 284000 (2019) 42000 (2006) 132000 42400 50500 57500 69900 128000 172000 206000 255000 283000
2020-07-08 17:00 17.68 118000 284000 (2019) 42000 (2006) 132000 42400 50500 57500 69900 128000 172000 206000 255000 283000
2020-07-08 16:30 17.74 119000 284000 (2019) 42000 (2006) 132000 42400 50500 57500 69900 128000 172000 206000 255000 283000
2020-07-08 16:00 17.67 118000 284000 (2019) 42000 (2006) 132000 42400 50500 57500 69900 128000 172000 206000 255000 283000
2020-07-08 15:30 17.66 118000 284000 (2019) 42000 (2006) 132000 42400 50500 57500 69900 128000 172000 206000 255000 283000
2020-07-08 15:00 17.68 118000 284000 (2019) 42000 (2006) 132000 42400 50500 57500 69900 128000 172000 206000 255000 283000
2020-07-08 14:30 17.69 118000 284000 (2019) 42000 (2006) 132000 42400 50500 57500 69900 128000 172000 206000 255000 283000
2020-07-08 14:00 17.68 118000 284000 (2019) 42000 (2006) 132000 42400 50500 57500 69900 128000 172000 206000 255000 283000
2020-07-08 13:30 17.72 118000 284000 (2019) 42000 (2006) 132000 42400 50500 57500 69900 128000 172000 206000 255000 283000
2020-07-08 13:00 17.70 118000 284000 (2019) 42000 (2006) 132000 42400 50500 57500 69900 128000 172000 206000 255000 283000
2020-07-08 12:30 17.68 118000 284000 (2019) 42000 (2006) 132000 42400 50500 57500 69900 128000 172000 206000 255000 283000
2020-07-08 12:00 17.67 118000 284000 (2019) 42000 (2006) 132000 42400 50500 57500 69900 128000 172000 206000 255000 283000
2020-07-08 11:30 17.66 118000 284000 (2019) 42000 (2006) 132000 42400 50500 57500 69900 128000 172000 206000 255000 283000
2020-07-08 11:00 17.67 118000 284000 (2019) 42000 (2006) 132000 42400 50500 57500 69900 128000 172000 206000 255000 283000
2020-07-08 10:30 17.64 117000 284000 (2019) 42000 (2006) 132000 42400 50500 57500 69900 128000 172000 206000 255000 283000
2020-07-08 10:00 17.63 117000 284000 (2019) 42000 (2006) 132000 42400 50500 57500 69900 128000 172000 206000 255000 283000
2020-07-08 09:30 17.63 117000 284000 (2019) 42000 (2006) 132000 42400 50500 57500 69900 128000 172000 206000 255000 283000
2020-07-08 09:00 17.57 117000 284000 (2019) 42000 (2006) 132000 42400 50500 57500 69900 128000 172000 206000 255000 283000
2020-07-08 08:30 17.58 117000 284000 (2019) 42000 (2006) 132000 42400 50500 57500 69900 128000 172000 206000 255000 283000
2020-07-08 08:00 17.55 116000 284000 (2019) 42000 (2006) 132000 42400 50500 57500 69900 128000 172000 206000 255000 283000
2020-07-08 07:30 17.55 116000 284000 (2019) 42000 (2006) 132000 42400 50500 57500 69900 128000 172000 206000 255000 283000
2020-07-08 07:00 17.57 117000 284000 (2019) 42000 (2006) 132000 42400 50500 57500 69900 128000 172000 206000 255000 283000
2020-07-08 06:30 17.55 116000 284000 (2019) 42000 (2006) 132000 42400 50500 57500 69900 128000 172000 206000 255000 283000
2020-07-08 06:00 17.51 116000 284000 (2019) 42000 (2006) 132000 42400 50500 57500 69900 128000 172000 206000 255000 283000
2020-07-08 05:30 17.50 116000 284000 (2019) 42000 (2006) 132000 42400 50500 57500 69900 128000 172000 206000 255000 283000
2020-07-08 05:00 17.49 116000 284000 (2019) 42000 (2006) 132000 42400 50500 57500 69900 128000 172000 206000 255000 283000
2020-07-08 04:30 17.49 116000 284000 (2019) 42000 (2006) 132000 42400 50500 57500 69900 128000 172000 206000 255000 283000
2020-07-08 04:00 17.47 115000 284000 (2019) 42000 (2006) 132000 42400 50500 57500 69900 128000 172000 206000 255000 283000
2020-07-08 03:30 17.47 115000 284000 (2019) 42000 (2006) 132000 42400 50500 57500 69900 128000 172000 206000 255000 283000
2020-07-08 03:00 17.45 115000 284000 (2019) 42000 (2006) 132000 42400 50500 57500 69900 128000 172000 206000 255000 283000
2020-07-08 02:30 17.42 115000 284000 (2019) 42000 (2006) 132000 42400 50500 57500 69900 128000 172000 206000 255000 283000
2020-07-08 02:00 17.45 115000 284000 (2019) 42000 (2006) 132000 42400 50500 57500 69900 128000 172000 206000 255000 283000
2020-07-08 01:30 17.44 115000 284000 (2019) 42000 (2006) 132000 42400 50500 57500 69900 128000 172000 206000 255000 283000
2020-07-08 01:00 17.42 115000 284000 (2019) 42000 (2006) 132000 42400 50500 57500 69900 128000 172000 206000 255000 283000
2020-07-08 00:30 17.43 115000 284000 (2019) 42000 (2006) 132000 42400 50500 57500 69900 128000 172000 206000 255000 283000
2020-07-08 00:00 17.41 115000 284000 (2019) 42000 (2006) 132000 42400 50500 57500 69900 128000 172000 206000 255000 283000
2020-07-07 23:30 17.41 115000 291000 (2019) 44000 (2006) 134000 44400 51300 59100 70300 135000 185000 202000 256000 289000
2020-07-07 23:00 17.46 115000 291000 (2019) 44000 (2006) 134000 44400 51300 59100 70300 135000 185000 202000 256000 289000
2020-07-07 22:30 17.43 115000 291000 (2019) 44000 (2006) 134000 44400 51300 59100 70300 135000 185000 202000 256000 289000
2020-07-07 22:00 17.43 115000 291000 (2019) 44000 (2006) 134000 44400 51300 59100 70300 135000 185000 202000 256000 289000
2020-07-07 21:30 17.41 115000 291000 (2019) 44000 (2006) 134000 44400 51300 59100 70300 135000 185000 202000 256000 289000
2020-07-07 21:00 17.44 115000 291000 (2019) 44000 (2006) 134000 44400 51300 59100 70300 135000 185000 202000 256000 289000
2020-07-07 20:30 17.41 115000 291000 (2019) 44000 (2006) 134000 44400 51300 59100 70300 135000 185000 202000 256000 289000
2020-07-07 20:00 17.44 115000 291000 (2019) 44000 (2006) 134000 44400 51300 59100 70300 135000 185000 202000 256000 289000
2020-07-07 19:30 17.45 115000 291000 (2019) 44000 (2006) 134000 44400 51300 59100 70300 135000 185000 202000 256000 289000
2020-07-07 19:00 17.48 116000 291000 (2019) 44000 (2006) 134000 44400 51300 59100 70300 135000 185000 202000 256000 289000
2020-07-07 18:30 17.52 116000 291000 (2019) 44000 (2006) 134000 44400 51300 59100 70300 135000 185000 202000 256000 289000
2020-07-07 18:00 17.55 116000 291000 (2019) 44000 (2006) 134000 44400 51300 59100 70300 135000 185000 202000 256000 289000
2020-07-07 17:30 17.51 116000 291000 (2019) 44000 (2006) 134000 44400 51300 59100 70300 135000 185000 202000 256000 289000
2020-07-07 17:00 17.56 117000 291000 (2019) 44000 (2006) 134000 44400 51300 59100 70300 135000 185000 202000 256000 289000
2020-07-07 16:30 17.56 117000 291000 (2019) 44000 (2006) 134000 44400 51300 59100 70300 135000 185000 202000 256000 289000
2020-07-07 16:00 17.54 116000 291000 (2019) 44000 (2006) 134000 44400 51300 59100 70300 135000 185000 202000 256000 289000
2020-07-07 15:30 17.56 117000 291000 (2019) 44000 (2006) 134000 44400 51300 59100 70300 135000 185000 202000 256000 289000
2020-07-07 15:00 17.59 117000 291000 (2019) 44000 (2006) 134000 44400 51300 59100 70300 135000 185000 202000 256000 289000
2020-07-07 14:30 17.61 117000 291000 (2019) 44000 (2006) 134000 44400 51300 59100 70300 135000 185000 202000 256000 289000
2020-07-07 14:00 17.63 117000 291000 (2019) 44000 (2006) 134000 44400 51300 59100 70300 135000 185000 202000 256000 289000
2020-07-07 13:30 17.62 117000 291000 (2019) 44000 (2006) 134000 44400 51300 59100 70300 135000 185000 202000 256000 289000
2020-07-07 13:00 17.63 117000 291000 (2019) 44000 (2006) 134000 44400 51300 59100 70300 135000 185000 202000 256000 289000
2020-07-07 12:30 17.65 118000 291000 (2019) 44000 (2006) 134000 44400 51300 59100 70300 135000 185000 202000 256000 289000
2020-07-07 12:00 17.69 118000 291000 (2019) 44000 (2006) 134000 44400 51300 59100 70300 135000 185000 202000 256000 289000
2020-07-07 11:30 17.68 118000 291000 (2019) 44000 (2006) 134000 44400 51300 59100 70300 135000 185000 202000 256000 289000
2020-07-07 11:00 17.64 117000 291000 (2019) 44000 (2006) 134000 44400 51300 59100 70300 135000 185000 202000 256000 289000
2020-07-07 10:30 17.73 119000 291000 (2019) 44000 (2006) 134000 44400 51300 59100 70300 135000 185000 202000 256000 289000
2020-07-07 10:00 17.73 119000 291000 (2019) 44000 (2006) 134000 44400 51300 59100 70300 135000 185000 202000 256000 289000
2020-07-07 09:30 17.74 119000 291000 (2019) 44000 (2006) 134000 44400 51300 59100 70300 135000 185000 202000 256000 289000
2020-07-07 09:00 17.78 119000 291000 (2019) 44000 (2006) 134000 44400 51300 59100 70300 135000 185000 202000 256000 289000
2020-07-07 08:30 17.78 119000 291000 (2019) 44000 (2006) 134000 44400 51300 59100 70300 135000 185000 202000 256000 289000
2020-07-07 08:00 17.81 120000 291000 (2019) 44000 (2006) 134000 44400 51300 59100 70300 135000 185000 202000 256000 289000
2020-07-07 07:30 17.80 119000 291000 (2019) 44000 (2006) 134000 44400 51300 59100 70300 135000 185000 202000 256000 289000
2020-07-07 07:00 17.82 120000 291000 (2019) 44000 (2006) 134000 44400 51300 59100 70300 135000 185000 202000 256000 289000
2020-07-07 06:30 17.82 120000 291000 (2019) 44000 (2006) 134000 44400 51300 59100 70300 135000 185000 202000 256000 289000
2020-07-07 06:00 17.83 120000 291000 (2019) 44000 (2006) 134000 44400 51300 59100 70300 135000 185000 202000 256000 289000
2020-07-07 05:30 17.84 120000 291000 (2019) 44000 (2006) 134000 44400 51300 59100 70300 135000 185000 202000 256000 289000
2020-07-07 05:00 17.84 120000 291000 (2019) 44000 (2006) 134000 44400 51300 59100 70300 135000 185000 202000 256000 289000
2020-07-07 04:30 17.89 121000 291000 (2019) 44000 (2006) 134000 44400 51300 59100 70300 135000 185000 202000 256000 289000
2020-07-07 04:00 17.90 121000 291000 (2019) 44000 (2006) 134000 44400 51300 59100 70300 135000 185000 202000 256000 289000
2020-07-07 03:30 17.89 121000 291000 (2019) 44000 (2006) 134000 44400 51300 59100 70300 135000 185000 202000 256000 289000
2020-07-07 03:00 17.92 121000 291000 (2019) 44000 (2006) 134000 44400 51300 59100 70300 135000 185000 202000 256000 289000
2020-07-07 02:30 17.94 121000 291000 (2019) 44000 (2006) 134000 44400 51300 59100 70300 135000 185000 202000 256000 289000
2020-07-07 02:00 17.95 121000 291000 (2019) 44000 (2006) 134000 44400 51300 59100 70300 135000 185000 202000 256000 289000
2020-07-07 01:30 17.98 122000 291000 (2019) 44000 (2006) 134000 44400 51300 59100 70300 135000 185000 202000 256000 289000
2020-07-07 01:00 17.99 122000 291000 (2019) 44000 (2006) 134000 44400 51300 59100 70300 135000 185000 202000 256000 289000
2020-07-07 00:30 17.97 122000 291000 (2019) 44000 (2006) 134000 44400 51300 59100 70300 135000 185000 202000 256000 289000
2020-07-07 00:00 18.00 122000 291000 (2019) 44000 (2006) 134000 44400 51300 59100 70300 135000 185000 202000 256000 289000
2020-07-06 23:30 18.02 122000 302000 (2019) 40600 (2006) 140000 41100 50100 62400 74700 137000 181000 231000 258000 300000
2020-07-06 23:00 18.04 122000 302000 (2019) 40600 (2006) 140000 41100 50100 62400 74700 137000 181000 231000 258000 300000
2020-07-06 22:30 18.06 123000 302000 (2019) 40600 (2006) 140000 41100 50100 62400 74700 137000 181000 231000 258000 300000
2020-07-06 22:00 18.11 123000 302000 (2019) 40600 (2006) 140000 41100 50100 62400 74700 137000 181000 231000 258000 300000
2020-07-06 21:30 18.07 123000 302000 (2019) 40600 (2006) 140000 41100 50100 62400 74700 137000 181000 231000 258000 300000
2020-07-06 21:00 18.10 123000 302000 (2019) 40600 (2006) 140000 41100 50100 62400 74700 137000 181000 231000 258000 300000
2020-07-06 20:30 18.14 124000 302000 (2019) 40600 (2006) 140000 41100 50100 62400 74700 137000 181000 231000 258000 300000
2020-07-06 20:00 18.15 124000 302000 (2019) 40600 (2006) 140000 41100 50100 62400 74700 137000 181000 231000 258000 300000
2020-07-06 19:30 18.18 124000 302000 (2019) 40600 (2006) 140000 41100 50100 62400 74700 137000 181000 231000 258000 300000
2020-07-06 19:00 18.19 124000 302000 (2019) 40600 (2006) 140000 41100 50100 62400 74700 137000 181000 231000 258000 300000
2020-07-06 18:30 18.16 124000 302000 (2019) 40600 (2006) 140000 41100 50100 62400 74700 137000 181000 231000 258000 300000
2020-07-06 18:00 18.20 124000 302000 (2019) 40600 (2006) 140000 41100 50100 62400 74700 137000 181000 231000 258000 300000
2020-07-06 17:30 18.19 124000 302000 (2019) 40600 (2006) 140000 41100 50100 62400 74700 137000 181000 231000 258000 300000
2020-07-06 17:00 18.22 125000 302000 (2019) 40600 (2006) 140000 41100 50100 62400 74700 137000 181000 231000 258000 300000
2020-07-06 16:30 18.23 125000 302000 (2019) 40600 (2006) 140000 41100 50100 62400 74700 137000 181000 231000 258000 300000
2020-07-06 16:00 18.24 125000 302000 (2019) 40600 (2006) 140000 41100 50100 62400 74700 137000 181000 231000 258000 300000
2020-07-06 15:30 18.29 126000 302000 (2019) 40600 (2006) 140000 41100 50100 62400 74700 137000 181000 231000 258000 300000
2020-07-06 15:00 18.27 125000 302000 (2019) 40600 (2006) 140000 41100 50100 62400 74700 137000 181000 231000 258000 300000
2020-07-06 14:30 18.29 126000 302000 (2019) 40600 (2006) 140000 41100 50100 62400 74700 137000 181000 231000 258000 300000
2020-07-06 14:00 18.29 126000 302000 (2019) 40600 (2006) 140000 41100 50100 62400 74700 137000 181000 231000 258000 300000
2020-07-06 13:30 18.34 126000 302000 (2019) 40600 (2006) 140000 41100 50100 62400 74700 137000 181000 231000 258000 300000
2020-07-06 13:00 18.34 126000 302000 (2019) 40600 (2006) 140000 41100 50100 62400 74700 137000 181000 231000 258000 300000
2020-07-06 12:30 18.35 126000 302000 (2019) 40600 (2006) 140000 41100 50100 62400 74700 137000 181000 231000 258000 300000
2020-07-06 12:00 18.37 127000 302000 (2019) 40600 (2006) 140000 41100 50100 62400 74700 137000 181000 231000 258000 300000
2020-07-06 11:30 18.40 127000 302000 (2019) 40600 (2006) 140000 41100 50100 62400 74700 137000 181000 231000 258000 300000
2020-07-06 11:00 18.41 127000 302000 (2019) 40600 (2006) 140000 41100 50100 62400 74700 137000 181000 231000 258000 300000
2020-07-06 10:30 18.35 126000 302000 (2019) 40600 (2006) 140000 41100 50100 62400 74700 137000 181000 231000 258000 300000
2020-07-06 10:00 18.42 127000 302000 (2019) 40600 (2006) 140000 41100 50100 62400 74700 137000 181000 231000 258000 300000
2020-07-06 09:30 18.43 127000 302000 (2019) 40600 (2006) 140000 41100 50100 62400 74700 137000 181000 231000 258000 300000
2020-07-06 09:00 18.44 127000 302000 (2019) 40600 (2006) 140000 41100 50100 62400 74700 137000 181000 231000 258000 300000
2020-07-06 08:30 18.51 128000 302000 (2019) 40600 (2006) 140000 41100 50100 62400 74700 137000 181000 231000 258000 300000
2020-07-06 08:00 18.49 128000 302000 (2019) 40600 (2006) 140000 41100 50100 62400 74700 137000 181000 231000 258000 300000
2020-07-06 07:30 18.44 127000 302000 (2019) 40600 (2006) 140000 41100 50100 62400 74700 137000 181000 231000 258000 300000
2020-07-06 07:00 18.53 129000 302000 (2019) 40600 (2006) 140000 41100 50100 62400 74700 137000 181000 231000 258000 300000
2020-07-06 06:30 18.57 129000 302000 (2019) 40600 (2006) 140000 41100 50100 62400 74700 137000 181000 231000 258000 300000
2020-07-06 06:00 18.57 129000 302000 (2019) 40600 (2006) 140000 41100 50100 62400 74700 137000 181000 231000 258000 300000
2020-07-06 05:30 18.61 130000 302000 (2019) 40600 (2006) 140000 41100 50100 62400 74700 137000 181000 231000 258000 300000
2020-07-06 05:00 18.60 130000 302000 (2019) 40600 (2006) 140000 41100 50100 62400 74700 137000 181000 231000 258000 300000
2020-07-06 04:30 18.65 130000 302000 (2019) 40600 (2006) 140000 41100 50100 62400 74700 137000 181000 231000 258000 300000
2020-07-06 04:00 18.61 130000 302000 (2019) 40600 (2006) 140000 41100 50100 62400 74700 137000 181000 231000 258000 300000
2020-07-06 03:30 18.64 130000 302000 (2019) 40600 (2006) 140000 41100 50100 62400 74700 137000 181000 231000 258000 300000
2020-07-06 03:00 18.70 131000 302000 (2019) 40600 (2006) 140000 41100 50100 62400 74700 137000 181000 231000 258000 300000
2020-07-06 02:30 18.72 131000 302000 (2019) 40600 (2006) 140000 41100 50100 62400 74700 137000 181000 231000 258000 300000
2020-07-06 02:00 18.70 131000 302000 (2019) 40600 (2006) 140000 41100 50100 62400 74700 137000 181000 231000 258000 300000
2020-07-06 01:30 18.73 131000 302000 (2019) 40600 (2006) 140000 41100 50100 62400 74700 137000 181000 231000 258000 300000
2020-07-06 01:00 18.71 131000 302000 (2019) 40600 (2006) 140000 41100 50100 62400 74700 137000 181000 231000 258000 300000
2020-07-06 00:30 18.76 132000 302000 (2019) 40600 (2006) 140000 41100 50100 62400 74700 137000 181000 231000 258000 300000
2020-07-06 00:00 18.75 132000 302000 (2019) 40600 (2006) 140000 41100 50100 62400 74700 137000 181000 231000 258000 300000

A total of 368 rows are displayed for years 2000 through 2019.